Time;durP1;ratioP1;P1;durP2;ratioP2;P2;SDS_P1;SDS_P2;PMS_P1;PMS_P2;Temp;Humidity;BMP_temperature;BMP_pressure;BME280_temperature;BME280_humidity;BME280_pressure;Samples;Min_cycle;Max_cycle;Signal;HPM_P1;HPM_P2
2022/07/01 00:00:10;;;;;;;4.22;2.17;;;;;;;;;;5051732;28;20078;-78
2022/07/01 00:02:38;;;;;;;5.10;1.83;;;;;;;;;;5050576;28;20045;-80
2022/07/01 00:05:04;;;;;;;5.10;2.00;;;;;;;;;;5050663;28;20021;-78
2022/07/01 00:07:45;;;;;;;3.28;1.95;;;;;;;;;;5050595;28;20501;-78
2022/07/01 00:10:10;;;;;;;4.22;2.00;;;;;;;;;;5051352;28;20029;-77
2022/07/01 00:12:36;;;;;;;3.72;2.10;;;;;;;;;;5048981;28;20032;-79
2022/07/01 00:15:01;;;;;;;5.70;1.88;;;;;;;;;;5031934;28;20400;-78
2022/07/01 00:17:27;;;;;;;4.18;1.83;;;;;;;;;;4999082;28;20026;-78
2022/07/01 00:19:52;;;;;;;4.75;1.90;;;;;;;;;;5015499;28;20484;-78
2022/07/01 00:22:18;;;;;;;9.07;1.98;;;;;;;;;;5030120;28;20093;-79
2022/07/01 00:24:46;;;;;;;4.50;2.33;;;;;;;;;;5052705;28;20060;-79
2022/07/01 00:27:12;;;;;;;2.75;1.90;;;;;;;;;;5052015;28;20029;-79
2022/07/01 00:29:38;;;;;;;5.53;2.15;;;;;;;;;;5052599;28;20044;-78
2022/07/01 00:32:03;;;;;;;6.20;2.00;;;;;;;;;;5037564;28;20025;-79
2022/07/01 00:34:29;;;;;;;5.00;1.80;;;;;;;;;;5034820;28;20123;-79
2022/07/01 00:36:54;;;;;;;5.68;2.15;;;;;;;;;;5037298;28;20037;-79
2022/07/01 00:39:20;;;;;;;2.92;1.75;;;;;;;;;;5052338;28;20043;-78
2022/07/01 00:41:45;;;;;;;3.85;2.03;;;;;;;;;;5050161;28;20125;-79
2022/07/01 00:44:20;;;;;;;3.65;2.05;;;;;;;;;;5051206;28;20124;-79
2022/07/01 00:46:46;;;;;;;6.28;2.00;;;;;;;;;;5036297;28;20060;-77
2022/07/01 00:49:11;;;;;;;9.80;2.40;;;;;;;;;;5050508;28;20024;-77
2022/07/01 00:51:37;;;;;;;3.35;2.00;;;;;;;;;;5048923;28;20043;-79
2022/07/01 00:54:02;;;;;;;3.70;2.10;;;;;;;;;;5051385;28;20549;-78
2022/07/01 00:56:28;;;;;;;3.72;1.98;;;;;;;;;;5040782;28;20065;-78
2022/07/01 00:58:54;;;;;;;6.25;2.05;;;;;;;;;;5017058;28;20017;-78
2022/07/01 01:01:21;;;;;;;3.20;1.80;;;;;;;;;;5051604;28;20039;-78
2022/07/01 01:03:47;;;;;;;5.70;2.00;;;;;;;;;;5049872;28;20025;-78
2022/07/01 01:06:12;;;;;;;5.72;2.10;;;;;;;;;;5050344;28;20029;-78
2022/07/01 01:08:38;;;;;;;4.45;2.22;;;;;;;;;;5033567;28;20140;-78
2022/07/01 01:11:03;;;;;;;3.72;1.98;;;;;;;;;;5049198;28;20033;-77
2022/07/01 01:13:29;;;;;;;4.05;2.08;;;;;;;;;;5042003;28;20025;-77
2022/07/01 01:15:54;;;;;;;3.42;1.95;;;;;;;;;;5033916;28;20112;-78
2022/07/01 01:18:20;;;;;;;4.40;1.95;;;;;;;;;;5051546;28;20021;-78
2022/07/01 01:20:45;;;;;;;4.85;1.90;;;;;;;;;;5036328;28;20041;-78
2022/07/01 01:23:11;;;;;;;5.03;2.00;;;;;;;;;;5051604;28;20048;-79
2022/07/01 01:25:36;;;;;;;5.03;2.10;;;;;;;;;;5033063;28;20036;-78
2022/07/01 01:28:02;;;;;;;4.82;2.03;;;;;;;;;;5049985;28;20064;-78
2022/07/01 01:30:28;;;;;;;3.45;2.10;;;;;;;;;;5016691;28;20037;-78
2022/07/01 01:32:53;;;;;;;4.72;1.77;;;;;;;;;;5036355;28;20116;-78
2022/07/01 01:35:19;;;;;;;3.15;1.80;;;;;;;;;;5040144;28;20053;-78
2022/07/01 01:37:44;;;;;;;2.78;1.90;;;;;;;;;;5043399;28;20162;-78
2022/07/01 01:40:10;;;;;;;4.35;2.08;;;;;;;;;;5040274;28;20488;-79
2022/07/01 01:42:35;;;;;;;5.65;2.40;;;;;;;;;;5025331;28;20108;-78
2022/07/01 01:45:01;;;;;;;7.78;2.17;;;;;;;;;;5038833;28;20033;-78
2022/07/01 01:47:27;;;;;;;3.55;2.00;;;;;;;;;;5036112;28;20380;-78
2022/07/01 01:49:52;;;;;;;3.35;2.28;;;;;;;;;;5039394;28;20518;-79
2022/07/01 01:52:18;;;;;;;4.57;2.15;;;;;;;;;;5037839;28;20142;-78
2022/07/01 01:54:44;;;;;;;5.07;2.30;;;;;;;;;;5031161;28;20425;-78
2022/07/01 01:57:09;;;;;;;4.65;2.45;;;;;;;;;;5033860;28;20025;-76
2022/07/01 01:59:35;;;;;;;3.88;2.20;;;;;;;;;;5045585;28;20396;-77
2022/07/01 02:02:00;;;;;;;4.13;2.40;;;;;;;;;;5042507;28;20404;-75
2022/07/01 02:04:26;;;;;;;7.10;2.50;;;;;;;;;;5029900;28;20033;-78
2022/07/01 02:06:51;;;;;;;4.07;2.45;;;;;;;;;;5013768;28;20079;-76
2022/07/01 02:09:17;;;;;;;6.22;2.83;;;;;;;;;;5030122;28;20491;-78
2022/07/01 02:11:42;;;;;;;5.40;2.40;;;;;;;;;;5038874;28;20033;-77
2022/07/01 02:14:08;;;;;;;9.27;2.63;;;;;;;;;;5050240;28;20033;-78
2022/07/01 02:16:33;;;;;;;5.00;2.28;;;;;;;;;;5024931;28;20021;-78
2022/07/01 02:18:59;;;;;;;6.18;2.40;;;;;;;;;;5030994;28;20041;-75
2022/07/01 02:21:24;;;;;;;6.35;2.50;;;;;;;;;;5030972;28;20041;-76
2022/07/01 02:23:51;;;;;;;6.82;2.05;;;;;;;;;;5017353;28;20412;-76
2022/07/01 02:26:17;;;;;;;6.68;2.22;;;;;;;;;;5034923;28;20051;-77
2022/07/01 02:28:42;;;;;;;5.15;2.50;;;;;;;;;;5023094;28;20061;-80
2022/07/01 02:31:08;;;;;;;5.47;2.20;;;;;;;;;;5026515;28;20033;-76
2022/07/01 02:33:33;;;;;;;4.95;2.08;;;;;;;;;;5015470;28;20116;-77
2022/07/01 02:35:59;;;;;;;4.45;2.58;;;;;;;;;;5041369;28;20048;-77
2022/07/01 02:38:24;;;;;;;4.47;2.20;;;;;;;;;;5039308;28;20046;-77
2022/07/01 02:40:50;;;;;;;5.28;2.22;;;;;;;;;;5040420;28;20036;-77
2022/07/01 02:43:16;;;;;;;7.35;2.83;;;;;;;;;;5053435;28;20122;-77
2022/07/01 02:45:41;;;;;;;3.20;2.10;;;;;;;;;;5046239;28;20030;-76
2022/07/01 02:48:07;;;;;;;5.93;2.35;;;;;;;;;;5033062;28;20068;-77
2022/07/01 02:50:34;;;;;;;6.70;2.40;;;;;;;;;;5032991;28;20104;-77
2022/07/01 02:53:00;;;;;;;3.65;2.25;;;;;;;;;;5031600;28;20030;-76
2022/07/01 02:55:25;;;;;;;2.97;2.00;;;;;;;;;;5045266;28;20101;-76
2022/07/01 02:57:51;;;;;;;7.97;3.60;;;;;;;;;;5034337;28;20087;-77
2022/07/01 03:00:17;;;;;;;4.45;2.40;;;;;;;;;;5028889;28;20025;-76
2022/07/01 03:02:42;;;;;;;3.72;2.20;;;;;;;;;;5052780;28;20151;-76
2022/07/01 03:05:08;;;;;;;5.50;2.80;;;;;;;;;;5035669;28;20044;-77
2022/07/01 03:07:36;;;;;;;3.65;2.20;;;;;;;;;;5035023;28;20049;-77
2022/07/01 03:10:03;;;;;;;6.95;2.20;;;;;;;;;;5052465;28;20136;-76
2022/07/01 03:12:28;;;;;;;4.45;2.13;;;;;;;;;;5051816;28;20483;-78
2022/07/01 03:15:20;;;;;;;5.13;2.40;;;;;;;;;;5034351;28;20030;-77
2022/07/01 03:17:45;;;;;;;3.35;2.10;;;;;;;;;;5040960;28;20052;-77
2022/07/01 03:20:12;;;;;;;8.93;2.30;;;;;;;;;;5035108;28;20021;-77
2022/07/01 03:22:37;;;;;;;3.65;2.13;;;;;;;;;;5051524;28;20090;-77
2022/07/01 03:25:03;;;;;;;4.20;2.20;;;;;;;;;;5045779;28;20025;-75
2022/07/01 03:27:29;;;;;;;3.70;2.10;;;;;;;;;;5032328;28;20067;-77
2022/07/01 03:29:54;;;;;;;6.40;2.80;;;;;;;;;;5032983;28;20057;-76
2022/07/01 03:32:20;;;;;;;6.00;2.78;;;;;;;;;;5032640;28;20042;-77
2022/07/01 03:34:45;;;;;;;4.60;2.53;;;;;;;;;;5032010;28;20025;-77
2022/07/01 03:37:11;;;;;;;6.50;2.80;;;;;;;;;;5015772;28;20883;-77
2022/07/01 03:39:37;;;;;;;5.80;2.72;;;;;;;;;;5032419;28;20021;-77
2022/07/01 03:42:03;;;;;;;10.07;2.90;;;;;;;;;;5033196;28;20033;-77
2022/07/01 03:44:28;;;;;;;5.90;3.35;;;;;;;;;;5032774;28;20022;-77
2022/07/01 03:46:54;;;;;;;10.68;3.08;;;;;;;;;;5032740;28;20045;-78
2022/07/01 03:49:19;;;;;;;3.63;2.53;;;;;;;;;;5034290;28;20021;-76
2022/07/01 03:51:45;;;;;;;6.20;2.53;;;;;;;;;;5052405;28;20403;-76
2022/07/01 03:56:58;;;;;;;4.47;2.30;;;;;;;;;;5048948;28;20037;-76
2022/07/01 03:59:24;;;;;;;7.60;2.63;;;;;;;;;;5041244;28;20025;-76
2022/07/01 04:01:50;;;;;;;6.00;2.55;;;;;;;;;;5050003;28;20029;-78
2022/07/01 04:04:15;;;;;;;6.57;2.50;;;;;;;;;;5034480;28;20395;-77
2022/07/01 04:06:41;;;;;;;5.57;2.58;;;;;;;;;;5050811;28;20053;-77
2022/07/01 04:09:06;;;;;;;5.10;2.60;;;;;;;;;;5050500;28;20465;-76
2022/07/01 04:11:32;;;;;;;12.68;3.58;;;;;;;;;;5050315;28;20025;-77
2022/07/01 04:13:57;;;;;;;4.13;2.50;;;;;;;;;;5050883;28;20033;-76
2022/07/01 04:16:25;;;;;;;5.05;2.55;;;;;;;;;;5032320;28;20033;-77
2022/07/01 04:18:51;;;;;;;5.00;2.40;;;;;;;;;;5033906;28;20035;-76
2022/07/01 04:24:00;;;;;;;8.27;2.50;;;;;;;;;;5050223;28;20079;-76
2022/07/01 04:26:26;;;;;;;4.80;2.70;;;;;;;;;;5050296;28;20376;-76
2022/07/01 04:28:51;;;;;;;5.97;2.50;;;;;;;;;;5051375;28;20099;-76
2022/07/01 04:31:17;;;;;;;6.28;2.58;;;;;;;;;;5050861;28;20064;-77
2022/07/01 04:33:42;;;;;;;9.07;2.42;;;;;;;;;;5050772;28;20021;-76
2022/07/01 04:36:08;;;;;;;6.50;2.80;;;;;;;;;;5050748;28;20388;-76
2022/07/01 04:38:33;;;;;;;8.13;2.58;;;;;;;;;;5042753;28;20044;-76
2022/07/01 04:43:43;;;;;;;5.72;2.30;;;;;;;;;;5040020;28;20037;-77
2022/07/01 04:46:08;;;;;;;5.03;2.40;;;;;;;;;;5043295;28;20021;-76
2022/07/01 04:48:34;;;;;;;4.90;2.10;;;;;;;;;;5041645;28;20620;-77
2022/07/01 04:50:59;;;;;;;4.60;2.35;;;;;;;;;;5050180;28;20491;-77
2022/07/01 04:53:25;;;;;;;5.70;2.40;;;;;;;;;;5033943;28;20040;-75
2022/07/01 04:55:50;;;;;;;7.88;2.53;;;;;;;;;;5049726;28;20025;-76
2022/07/01 04:58:16;;;;;;;7.22;2.58;;;;;;;;;;5051148;28;20110;-76
2022/07/01 05:00:42;;;;;;;5.53;2.30;;;;;;;;;;5049112;28;20483;-77
2022/07/01 05:03:08;;;;;;;8.05;2.42;;;;;;;;;;5016982;28;20033;-78
2022/07/01 05:05:33;;;;;;;5.13;2.40;;;;;;;;;;5050885;28;20078;-83
2022/07/01 05:07:59;;;;;;;5.20;2.63;;;;;;;;;;5049999;28;20060;-78
2022/07/01 05:10:24;;;;;;;5.43;2.42;;;;;;;;;;5048855;28;20037;-78
2022/07/01 05:12:50;;;;;;;6.93;2.80;;;;;;;;;;5049787;28;20033;-78
2022/07/01 05:15:15;;;;;;;5.90;2.40;;;;;;;;;;5050933;28;20124;-78
2022/07/01 05:23:09;;;;;;;6.15;2.63;;;;;;;;;;5038977;28;20029;-78
2022/07/01 05:25:35;;;;;;;6.20;2.60;;;;;;;;;;5050310;28;20029;-76
2022/07/01 05:28:00;;;;;;;6.22;2.70;;;;;;;;;;5033386;28;20039;-76
2022/07/01 05:30:26;;;;;;;6.53;2.63;;;;;;;;;;5050105;28;20025;-78
2022/07/01 05:32:51;;;;;;;6.55;2.78;;;;;;;;;;5051192;28;20495;-76
2022/07/01 05:35:17;;;;;;;4.75;2.45;;;;;;;;;;5049702;28;20127;-77
2022/07/01 05:37:42;;;;;;;7.20;2.70;;;;;;;;;;5050902;28;20041;-78
2022/07/01 05:40:08;;;;;;;4.68;2.88;;;;;;;;;;5031151;28;20025;-78
2022/07/01 05:42:33;;;;;;;6.13;3.08;;;;;;;;;;5049274;28;20033;-78
2022/07/01 05:44:59;;;;;;;4.93;2.67;;;;;;;;;;5048926;28;20052;-79
2022/07/01 05:47:24;;;;;;;5.85;2.63;;;;;;;;;;5021034;28;20068;-77
2022/07/01 05:49:50;;;;;;;11.13;2.70;;;;;;;;;;5043714;28;20361;-80
2022/07/01 05:52:15;;;;;;;6.90;2.58;;;;;;;;;;5032839;28;20030;-78
2022/07/01 05:54:41;;;;;;;7.75;2.60;;;;;;;;;;5042507;28;20100;-78
2022/07/01 05:57:06;;;;;;;8.52;2.83;;;;;;;;;;5048469;28;20379;-78
2022/07/01 05:59:32;;;;;;;9.63;2.70;;;;;;;;;;5054437;28;20480;-78
2022/07/01 06:01:57;;;;;;;8.73;2.72;;;;;;;;;;5053788;28;20060;-77
2022/07/01 06:04:23;;;;;;;6.05;2.17;;;;;;;;;;5012850;28;20434;-78
2022/07/01 06:06:48;;;;;;;8.07;2.60;;;;;;;;;;5035598;28;20068;-78
2022/07/01 06:09:13;;;;;;;8.18;2.38;;;;;;;;;;5053942;28;20049;-80
2022/07/01 06:11:39;;;;;;;6.97;2.53;;;;;;;;;;5037107;28;20025;-78
2022/07/01 06:14:05;;;;;;;5.93;2.50;;;;;;;;;;5053451;28;20522;-78
2022/07/01 06:16:30;;;;;;;13.30;3.03;;;;;;;;;;5047411;28;20036;-78
2022/07/01 06:18:55;;;;;;;11.02;2.88;;;;;;;;;;5034021;28;20029;-77
2022/07/01 06:21:21;;;;;;;6.22;2.42;;;;;;;;;;5035583;28;20403;-77
2022/07/01 06:23:46;;;;;;;5.38;2.50;;;;;;;;;;5034685;28;20033;-78
2022/07/01 06:26:12;;;;;;;5.70;2.70;;;;;;;;;;5017913;28;20029;-79
2022/07/01 06:28:37;;;;;;;4.97;2.30;;;;;;;;;;5035200;28;20044;-77
2022/07/01 06:31:03;;;;;;;5.85;2.50;;;;;;;;;;5035474;28;20037;-77
2022/07/01 06:33:30;;;;;;;4.95;2.75;;;;;;;;;;5034675;28;20535;-80
2022/07/01 06:35:56;;;;;;;3.95;2.50;;;;;;;;;;5014848;28;20041;-78
2022/07/01 06:38:21;;;;;;;8.05;2.40;;;;;;;;;;5029990;28;20029;-78
2022/07/01 06:41:26;;;;;;;4.22;2.40;;;;;;;;;;5034104;28;20431;-79
2022/07/01 06:43:32;;;;;;;3.45;2.38;;;;;;;;;;5034621;28;20030;-76
2022/07/01 06:45:58;;;;;;;6.40;2.70;;;;;;;;;;5033905;28;20033;-78
2022/07/01 06:48:23;;;;;;;9.90;2.95;;;;;;;;;;5035224;28;20044;-77
2022/07/01 06:50:49;;;;;;;5.07;2.30;;;;;;;;;;5033785;28;20033;-78
2022/07/01 06:53:14;;;;;;;6.80;2.42;;;;;;;;;;5018527;28;20794;-77
2022/07/01 06:55:40;;;;;;;9.82;2.50;;;;;;;;;;5035422;28;20049;-78
2022/07/01 06:58:05;;;;;;;6.05;2.33;;;;;;;;;;5036526;28;20068;-78
2022/07/01 07:00:31;;;;;;;8.27;2.42;;;;;;;;;;5035764;28;20036;-81
2022/07/01 07:02:56;;;;;;;4.53;2.20;;;;;;;;;;5035216;28;20038;-79
2022/07/01 07:05:22;;;;;;;9.00;2.20;;;;;;;;;;5035223;28;20030;-79
2022/07/01 07:07:47;;;;;;;8.75;2.40;;;;;;;;;;5034769;28;20523;-77
2022/07/01 07:10:12;;;;;;;4.50;2.20;;;;;;;;;;5034542;28;20025;-79
2022/07/01 07:12:38;;;;;;;5.85;2.28;;;;;;;;;;5048000;28;20032;-77
2022/07/01 07:15:04;;;;;;;6.57;2.38;;;;;;;;;;5034892;28;20112;-77
2022/07/01 07:17:29;;;;;;;7.22;2.17;;;;;;;;;;5034357;28;20103;-79
2022/07/01 07:19:55;;;;;;;6.95;2.28;;;;;;;;;;5032870;28;20120;-78
2022/07/01 07:22:20;;;;;;;5.38;2.10;;;;;;;;;;5036102;28;20061;-78
2022/07/01 07:24:46;;;;;;;6.63;2.45;;;;;;;;;;5043518;28;20032;-78
2022/07/01 07:27:12;;;;;;;6.38;2.53;;;;;;;;;;5033672;28;20037;-78
2022/07/01 07:29:38;;;;;;;4.93;1.80;;;;;;;;;;5024937;28;20162;-77
2022/07/01 07:32:03;;;;;;;7.70;2.30;;;;;;;;;;5037218;28;20037;-80
2022/07/01 07:34:29;;;;;;;5.22;2.00;;;;;;;;;;5042350;28;20013;-82
2022/07/01 07:36:54;;;;;;;5.07;2.40;;;;;;;;;;5051581;28;20411;-76
2022/07/01 07:39:20;;;;;;;6.18;1.90;;;;;;;;;;5052565;28;20041;-77
2022/07/01 07:41:45;;;;;;;7.18;2.47;;;;;;;;;;5052640;28;20373;-79
2022/07/01 07:44:11;;;;;;;6.70;2.40;;;;;;;;;;5053322;28;20043;-78
2022/07/01 07:46:36;;;;;;;7.43;2.60;;;;;;;;;;5052182;28;20037;-81
2022/07/01 07:49:02;;;;;;;9.00;2.33;;;;;;;;;;5053546;28;20040;-77
2022/07/01 07:51:27;;;;;;;9.10;2.28;;;;;;;;;;5051806;28;20431;-78
2022/07/01 07:53:53;;;;;;;7.03;2.65;;;;;;;;;;5051874;28;20029;-77
2022/07/01 07:56:18;;;;;;;9.05;2.50;;;;;;;;;;5051741;28;20044;-78
2022/07/01 07:58:44;;;;;;;5.90;2.10;;;;;;;;;;5052381;28;20452;-77
2022/07/01 08:01:09;;;;;;;6.03;2.40;;;;;;;;;;5049052;28;20043;-80
2022/07/01 08:03:35;;;;;;;6.85;2.25;;;;;;;;;;5039504;28;20116;-78
2022/07/01 08:06:00;;;;;;;4.60;2.15;;;;;;;;;;5052027;28;20120;-78
2022/07/01 08:08:27;;;;;;;4.70;2.00;;;;;;;;;;5053026;28;20049;-78
2022/07/01 08:10:53;;;;;;;4.43;1.75;;;;;;;;;;5039582;28;20037;-79
2022/07/01 08:13:18;;;;;;;9.02;1.60;;;;;;;;;;5053170;28;20398;-79
2022/07/01 08:15:44;;;;;;;5.93;1.77;;;;;;;;;;5052569;28;20029;-78
2022/07/01 08:18:09;;;;;;;6.97;1.80;;;;;;;;;;5053176;28;20059;-79
2022/07/01 08:20:35;;;;;;;4.78;1.70;;;;;;;;;;5022991;28;20101;-79
2022/07/01 08:23:00;;;;;;;3.97;1.80;;;;;;;;;;5048349;28;20035;-78
2022/07/01 08:25:26;;;;;;;4.65;1.85;;;;;;;;;;5022208;28;20511;-78
2022/07/01 08:27:51;;;;;;;7.20;1.85;;;;;;;;;;5032078;28;20036;-79
2022/07/01 08:30:16;;;;;;;9.23;1.85;;;;;;;;;;5033527;28;20518;-78
2022/07/01 08:32:42;;;;;;;4.38;1.70;;;;;;;;;;5033737;28;20083;-79
2022/07/01 08:35:08;;;;;;;3.00;1.58;;;;;;;;;;5031591;28;20037;-80
2022/07/01 08:37:34;;;;;;;5.00;1.83;;;;;;;;;;5033197;28;20384;-79
2022/07/01 08:39:59;;;;;;;3.88;1.90;;;;;;;;;;5032137;28;20037;-80
2022/07/01 08:42:25;;;;;;;5.70;1.90;;;;;;;;;;5037829;28;20471;-78
2022/07/01 08:44:50;;;;;;;5.82;1.90;;;;;;;;;;5052477;28;20047;-82
2022/07/01 08:47:16;;;;;;;3.00;2.00;;;;;;;;;;5050183;28;20028;-80
2022/07/01 08:49:41;;;;;;;8.70;1.77;;;;;;;;;;5051673;28;20029;-78
2022/07/01 08:52:09;;;;;;;3.92;1.70;;;;;;;;;;5032922;28;20491;-77
2022/07/01 08:54:37;;;;;;;7.03;1.88;;;;;;;;;;5051640;28;20123;-77
2022/07/01 08:57:03;;;;;;;5.65;2.00;;;;;;;;;;5037053;28;20033;-78
2022/07/01 08:59:28;;;;;;;6.68;2.78;;;;;;;;;;5031589;28;20089;-78
2022/07/01 09:01:56;;;;;;;3.22;2.30;;;;;;;;;;5032988;28;20437;-79
2022/07/01 09:04:22;;;;;;;5.57;2.00;;;;;;;;;;5033403;28;20034;-79
2022/07/01 09:06:47;;;;;;;5.95;1.70;;;;;;;;;;5031289;28;20045;-78
2022/07/01 09:09:14;;;;;;;3.28;1.67;;;;;;;;;;5030757;28;20068;-79
2022/07/01 09:11:46;;;;;;;4.70;1.70;;;;;;;;;;5038439;28;20033;-78
2022/07/01 09:14:13;;;;;;;4.03;1.98;;;;;;;;;;5036605;28;20496;-79
2022/07/01 09:16:42;;;;;;;6.65;1.90;;;;;;;;;;5032723;28;20029;-78
2022/07/01 09:19:07;;;;;;;4.03;1.52;;;;;;;;;;5032156;28;20044;-79
2022/07/01 09:21:33;;;;;;;6.25;1.88;;;;;;;;;;5041341;28;20021;-79
2022/07/01 09:23:58;;;;;;;3.72;1.38;;;;;;;;;;5048135;28;20037;-77
2022/07/01 09:26:26;;;;;;;5.47;1.60;;;;;;;;;;5039110;28;20040;-78
2022/07/01 09:28:56;;;;;;;6.85;1.80;;;;;;;;;;5036267;28;20128;-80
2022/07/01 09:31:22;;;;;;;6.35;1.70;;;;;;;;;;5051045;28;20040;-79
2022/07/01 09:34:02;;;;;;;5.15;1.80;;;;;;;;;;5032560;28;21272;-79
2022/07/01 09:36:27;;;;;;;3.22;1.40;;;;;;;;;;5050970;28;20041;-78
2022/07/01 09:38:52;;;;;;;3.60;1.55;;;;;;;;;;5048719;28;20455;-79
2022/07/01 09:41:18;;;;;;;5.75;2.05;;;;;;;;;;5049248;28;20149;-78
2022/07/01 09:43:43;;;;;;;8.15;1.60;;;;;;;;;;5048538;28;20027;-78
2022/07/01 09:46:09;;;;;;;7.85;1.70;;;;;;;;;;5050726;28;20495;-77
2022/07/01 09:48:38;;;;;;;6.70;1.70;;;;;;;;;;5048194;28;20471;-79
2022/07/01 09:51:05;;;;;;;4.82;1.58;;;;;;;;;;5050651;28;20021;-78
2022/07/01 09:53:30;;;;;;;6.25;1.98;;;;;;;;;;5048564;28;20020;-78
2022/07/01 09:55:56;;;;;;;3.70;1.60;;;;;;;;;;5050207;28;20033;-79
2022/07/01 09:58:21;;;;;;;4.07;1.50;;;;;;;;;;5047887;28;20035;-80
2022/07/01 10:00:47;;;;;;;7.00;1.50;;;;;;;;;;5048901;28;20736;-79
2022/07/01 10:03:12;;;;;;;5.07;1.73;;;;;;;;;;5046183;28;20048;-79
2022/07/01 10:05:39;;;;;;;4.47;1.30;;;;;;;;;;5048150;28;20132;-80
2022/07/01 10:08:15;;;;;;;4.03;1.27;;;;;;;;;;5045780;28;20061;-78
2022/07/01 10:10:40;;;;;;;4.25;1.10;;;;;;;;;;5048635;28;20029;-79
2022/07/01 10:13:05;;;;;;;4.95;1.40;;;;;;;;;;5049194;28;20123;-78
2022/07/01 10:15:31;;;;;;;4.38;1.20;;;;;;;;;;5033030;28;20086;-78
2022/07/01 10:17:56;;;;;;;10.45;1.98;;;;;;;;;;5049677;28;20090;-78
2022/07/01 10:20:26;;;;;;;5.30;1.50;;;;;;;;;;5050871;28;20067;-79
2022/07/01 10:22:59;;;;;;;9.85;1.80;;;;;;;;;;5042914;28;20034;-78
2022/07/01 10:25:35;;;;;;;11.50;1.80;;;;;;;;;;5045676;28;20385;-79
2022/07/01 10:28:12;;;;;;;12.45;1.45;;;;;;;;;;5042035;28;20041;-79
2022/07/01 10:31:01;;;;;;;8.07;1.33;;;;;;;;;;5034045;28;20392;-78
2022/07/01 10:33:27;;;;;;;4.20;1.10;;;;;;;;;;5050504;28;20041;-77
2022/07/01 10:35:52;;;;;;;4.28;1.17;;;;;;;;;;5050865;28;20036;-80
2022/07/01 10:38:18;;;;;;;4.13;1.38;;;;;;;;;;5050319;28;20084;-80
2022/07/01 10:40:48;;;;;;;4.75;1.67;;;;;;;;;;5032874;28;20025;-79
2022/07/01 10:43:17;;;;;;;6.63;1.10;;;;;;;;;;5050520;28;20037;-77
2022/07/01 10:45:43;;;;;;;5.47;1.20;;;;;;;;;;5044814;28;20060;-78
2022/07/01 10:48:19;;;;;;;4.80;1.27;;;;;;;;;;5034662;28;20037;-78
2022/07/01 10:50:45;;;;;;;5.10;1.60;;;;;;;;;;5035015;28;20511;-77
2022/07/01 10:53:10;;;;;;;2.63;1.10;;;;;;;;;;5033637;28;20397;-79
2022/07/01 10:55:37;;;;;;;4.00;1.58;;;;;;;;;;5033687;28;20030;-78
2022/07/01 10:58:02;;;;;;;11.77;1.30;;;;;;;;;;5035166;28;20013;-79
2022/07/01 11:00:31;;;;;;;2.67;1.30;;;;;;;;;;5035765;28;20184;-79
2022/07/01 11:03:04;;;;;;;5.05;1.13;;;;;;;;;;5035163;28;20021;-79
2022/07/01 11:05:29;;;;;;;5.45;1.15;;;;;;;;;;5035098;28;20079;-79
2022/07/01 11:07:55;;;;;;;5.68;1.20;;;;;;;;;;5034914;28;20467;-78
2022/07/01 11:10:20;;;;;;;6.78;2.15;;;;;;;;;;5034335;28;20030;-78
2022/07/01 11:12:48;;;;;;;6.85;1.10;;;;;;;;;;5051032;28;20032;-78
2022/07/01 11:15:14;;;;;;;3.08;1.10;;;;;;;;;;5043412;28;20040;-78
2022/07/01 11:17:43;;;;;;;4.68;1.20;;;;;;;;;;5032651;28;20424;-79
2022/07/01 11:20:09;;;;;;;5.28;1.30;;;;;;;;;;5032664;28;20033;-79
2022/07/01 11:22:35;;;;;;;5.68;1.42;;;;;;;;;;5034373;28;20025;-78
2022/07/01 11:25:01;;;;;;;8.07;1.40;;;;;;;;;;5034666;28;20044;-78
2022/07/01 11:27:26;;;;;;;7.38;1.30;;;;;;;;;;5033252;28;20029;-80
2022/07/01 11:29:53;;;;;;;8.10;1.52;;;;;;;;;;5016674;28;20040;-81
2022/07/01 11:32:24;;;;;;;6.00;1.20;;;;;;;;;;5017420;28;20095;-79
2022/07/01 11:34:50;;;;;;;7.35;1.30;;;;;;;;;;5034539;28;20480;-79
2022/07/01 11:40:18;;;;;;;4.60;1.10;;;;;;;;;;5034277;28;20515;-79
2022/07/01 11:42:44;;;;;;;2.10;1.00;;;;;;;;;;5034733;28;20038;-77
2022/07/01 11:45:09;;;;;;;3.38;1.00;;;;;;;;;;5035366;28;20030;-79
2022/07/01 11:47:35;;;;;;;4.32;1.17;;;;;;;;;;5033690;28;20087;-78
2022/07/01 11:50:00;;;;;;;3.10;1.17;;;;;;;;;;5036249;28;20039;-77
2022/07/01 11:52:26;;;;;;;7.10;1.50;;;;;;;;;;5033569;28;20499;-77
2022/07/01 11:54:52;;;;;;;4.88;1.40;;;;;;;;;;5034924;28;20499;-80
2022/07/01 11:57:19;;;;;;;3.58;1.10;;;;;;;;;;5033283;28;20068;-78
2022/07/01 11:59:45;;;;;;;4.03;1.10;;;;;;;;;;5034639;28;20025;-78
2022/07/01 12:02:11;;;;;;;5.03;1.13;;;;;;;;;;5033140;28;20034;-80
2022/07/01 12:04:37;;;;;;;4.93;1.25;;;;;;;;;;5034840;28;20025;-78
2022/07/01 12:07:03;;;;;;;3.53;1.20;;;;;;;;;;5034409;28;20049;-83
2022/07/01 12:09:28;;;;;;;3.65;1.20;;;;;;;;;;5033783;28;20033;-79
2022/07/01 12:11:54;;;;;;;6.88;1.40;;;;;;;;;;5043437;28;20037;-78
2022/07/01 12:14:32;;;;;;;3.08;1.05;;;;;;;;;;5050769;28;20024;-79
2022/07/01 12:16:58;;;;;;;5.88;1.20;;;;;;;;;;5052939;28;20079;-79
2022/07/01 12:19:28;;;;;;;3.53;1.20;;;;;;;;;;5047764;28;20041;-77
2022/07/01 12:21:54;;;;;;;8.93;1.20;;;;;;;;;;5033514;28;20520;-78
2022/07/01 12:24:21;;;;;;;5.43;1.13;;;;;;;;;;5038215;28;20017;-78
2022/07/01 12:26:50;;;;;;;5.90;1.63;;;;;;;;;;5040697;28;20041;-79
2022/07/01 12:29:16;;;;;;;5.28;1.40;;;;;;;;;;5033062;28;20029;-78
2022/07/01 12:31:42;;;;;;;3.10;1.05;;;;;;;;;;5033453;28;20381;-78
2022/07/01 12:34:07;;;;;;;4.40;1.15;;;;;;;;;;5031859;28;20017;-81
2022/07/01 12:36:33;;;;;;;3.90;1.10;;;;;;;;;;5032935;28;20044;-77
2022/07/01 12:39:05;;;;;;;3.13;1.10;;;;;;;;;;5032295;28;20476;-78
2022/07/01 12:41:33;;;;;;;10.30;1.20;;;;;;;;;;5032585;28;20037;-79
2022/07/01 12:43:58;;;;;;;3.22;1.20;;;;;;;;;;5032625;28;20492;-78
2022/07/01 12:46:30;;;;;;;4.68;1.10;;;;;;;;;;5031489;28;20046;-79
2022/07/01 12:48:56;;;;;;;3.97;1.20;;;;;;;;;;5033046;28;20065;-79
2022/07/01 12:51:27;;;;;;;4.65;1.13;;;;;;;;;;5033228;28;20068;-79
2022/07/01 12:53:53;;;;;;;3.28;0.90;;;;;;;;;;5032738;28;20041;-79
2022/07/01 12:56:25;;;;;;;3.03;1.00;;;;;;;;;;5033451;28;20033;-78
2022/07/01 12:58:52;;;;;;;6.20;1.27;;;;;;;;;;5032903;28;20060;-80
2022/07/01 13:01:18;;;;;;;5.25;1.33;;;;;;;;;;5033194;28;20020;-82
2022/07/01 13:03:43;;;;;;;7.68;1.08;;;;;;;;;;5033657;28;20060;-78
2022/07/01 13:06:09;;;;;;;4.18;1.15;;;;;;;;;;5032621;28;20111;-79
2022/07/01 13:08:34;;;;;;;4.47;0.98;;;;;;;;;;5031827;28;20475;-78
2022/07/01 13:11:00;;;;;;;4.90;0.93;;;;;;;;;;5035578;28;20053;-79
2022/07/01 13:13:25;;;;;;;5.53;1.17;;;;;;;;;;5043304;28;20034;-79
2022/07/01 13:15:51;;;;;;;3.75;1.05;;;;;;;;;;5032449;28;20104;-80
2022/07/01 13:18:16;;;;;;;5.90;1.50;;;;;;;;;;5032621;28;20039;-80
2022/07/01 13:20:42;;;;;;;3.67;1.23;;;;;;;;;;5031090;28;20076;-78
2022/07/01 13:23:08;;;;;;;4.15;1.10;;;;;;;;;;5011611;28;20083;-81
2022/07/01 13:25:33;;;;;;;3.03;1.23;;;;;;;;;;5043283;28;20029;-79
2022/07/01 13:27:59;;;;;;;6.25;1.30;;;;;;;;;;5032503;28;20029;-79
2022/07/01 13:30:24;;;;;;;5.85;1.42;;;;;;;;;;5030988;28;20400;-81
2022/07/01 13:32:53;;;;;;;4.30;1.27;;;;;;;;;;5014375;28;20041;-79
2022/07/01 13:35:19;;;;;;;3.63;1.10;;;;;;;;;;5033605;28;20495;-77
2022/07/01 13:37:44;;;;;;;3.83;1.23;;;;;;;;;;5049661;28;20037;-79
2022/07/01 13:40:10;;;;;;;8.10;1.50;;;;;;;;;;5051473;28;20108;-78
2022/07/01 13:42:36;;;;;;;4.05;1.60;;;;;;;;;;5050559;28;20043;-78
2022/07/01 13:45:01;;;;;;;4.15;1.00;;;;;;;;;;5050185;28;20025;-78
2022/07/01 13:47:27;;;;;;;3.13;1.05;;;;;;;;;;5051472;28;20036;-78
2022/07/01 13:49:52;;;;;;;6.32;1.35;;;;;;;;;;5050267;28;20021;-78
2022/07/01 13:52:18;;;;;;;3.70;1.23;;;;;;;;;;5050842;28;20484;-79
2022/07/01 13:54:43;;;;;;;2.33;1.20;;;;;;;;;;5048436;28;20044;-79
2022/07/01 13:57:09;;;;;;;4.57;1.15;;;;;;;;;;5049067;28;20033;-79
2022/07/01 13:59:34;;;;;;;5.35;1.30;;;;;;;;;;5047664;28;20040;-78
2022/07/01 14:02:00;;;;;;;3.92;0.95;;;;;;;;;;5048808;28;20131;-77
2022/07/01 14:04:25;;;;;;;3.83;1.40;;;;;;;;;;5048566;28;20039;-79
2022/07/01 14:06:51;;;;;;;4.00;0.93;;;;;;;;;;5050259;28;20056;-77
2022/07/01 14:09:16;;;;;;;5.38;1.33;;;;;;;;;;5031349;28;20040;-78
2022/07/01 14:11:42;;;;;;;3.80;1.20;;;;;;;;;;5050881;28;20480;-79
2022/07/01 14:14:07;;;;;;;4.03;1.30;;;;;;;;;;5035787;28;20431;-77
2022/07/01 14:16:33;;;;;;;4.13;1.00;;;;;;;;;;5031312;28;20467;-78
2022/07/01 14:18:58;;;;;;;4.35;1.10;;;;;;;;;;5034124;28;20033;-79
2022/07/01 14:21:24;;;;;;;5.55;1.23;;;;;;;;;;5017659;28;20044;-79
2022/07/01 14:23:49;;;;;;;4.38;1.00;;;;;;;;;;5049028;28;20025;-78
2022/07/01 14:26:15;;;;;;;4.45;1.20;;;;;;;;;;5054252;28;20032;-78
2022/07/01 14:28:41;;;;;;;6.47;1.30;;;;;;;;;;5051585;28;20055;-77
2022/07/01 14:31:06;;;;;;;3.88;0.95;;;;;;;;;;5035423;28;20033;-79
2022/07/01 14:33:32;;;;;;;5.68;1.55;;;;;;;;;;5035738;28;20025;-79
2022/07/01 14:35:57;;;;;;;6.68;1.35;;;;;;;;;;5036214;28;20555;-78
2022/07/01 14:38:22;;;;;;;4.00;1.27;;;;;;;;;;5053579;28;20032;-79
2022/07/01 14:40:48;;;;;;;4.38;1.27;;;;;;;;;;5053446;28;20510;-80
2022/07/01 14:43:13;;;;;;;3.03;1.10;;;;;;;;;;5053145;28;20183;-78
2022/07/01 14:45:39;;;;;;;3.95;1.10;;;;;;;;;;5053366;28;20043;-79
2022/07/01 14:48:04;;;;;;;4.32;1.02;;;;;;;;;;5051695;28;20131;-82
2022/07/01 14:50:30;;;;;;;4.57;1.08;;;;;;;;;;5053198;28;20037;-79
2022/07/01 14:52:56;;;;;;;8.52;1.40;;;;;;;;;;5053754;28;20029;-79